Canaan Lake, New York
Current Conditions -  °F | °C
As of 9:36 PM on Wednesday 22 Oct 2014 (Local Time) from KISP Reporting Station
Heavy Rain Heavy Rain  
Wind Chill: 51°   Ceiling: 1500
Heat Index: 51°   Visibility: 6mi
Dew Point: 48°   Wind: 23mph
Humidity: 89%   Direction: 10°N
Pressure: 29.68"   Gusts: 32mph
Location:  40.7718°N, 72.9949°W
Report Text: KISP 230136Z 01020G28KT 6SM +RA BR FEW011 BKN015CB OVC022 11/09 A2968 RMK AO2 PK WND 02033/0112 TSB12E36 CB NW MOV W P0012 T01060089
Loading
Personal Weather Stations






























Interactive Weather Map
Tropical Storm Tracking
New forecast layout! Learn more

10-Day Weather Forecast

Advertisements
Track Severe Weather on mobile